Time;durP1;ratioP1;P1;durP2;ratioP2;P2;SDS_P1;SDS_P2;PMS_P1;PMS_P2;Temp;Humidity;BMP_temperature;BMP_pressure;BME280_temperature;BME280_humidity;BME280_pressure;Samples;Min_cycle;Max_cycle;Signal;HPM_P1;HPM_P2
2022/04/25 00:00:52;;;;;;;6.78;5.22;;;;;;;16.51;42.49;92078.56;5013028;28;20044;-89
2022/04/25 00:03:17;;;;;;;6.40;4.65;;;;;;;16.50;42.60;92074.34;5049276;28;20036;-88
2022/04/25 00:05:43;;;;;;;5.65;4.47;;;;;;;16.50;42.60;92071.63;5049937;28;20044;-89
2022/04/25 00:08:08;;;;;;;6.75;4.53;;;;;;;16.50;42.64;92074.34;5046896;28;20041;-88
2022/04/25 00:10:33;;;;;;;6.63;4.68;;;;;;;16.51;42.73;92078.56;5050342;28;20037;-89
2022/04/25 00:12:59;;;;;;;7.10;5.32;;;;;;;16.49;42.87;92072.88;5045284;28;20115;-88
2022/04/25 00:15:27;;;;;;;6.78;5.15;;;;;;;16.49;42.90;92072.16;5049699;28;20040;-89
2022/04/25 00:17:52;;;;;;;7.60;5.13;;;;;;;16.50;42.81;92071.63;5066624;28;20071;-88
2022/04/25 00:20:17;;;;;;;7.43;5.18;;;;;;;16.49;42.69;92070.16;5036786;28;20033;-88
2022/04/25 00:22:45;;;;;;;7.00;4.85;;;;;;;16.49;42.88;92072.88;5043707;28;20047;-89
2022/04/25 00:25:10;;;;;;;8.10;5.85;;;;;;;16.48;42.67;92067.97;5049598;28;20072;-88
2022/04/25 00:27:36;;;;;;;9.48;6.50;;;;;;;16.50;42.64;92065.44;5032878;28;20048;-88
2022/04/25 00:30:01;;;;;;;8.07;5.97;;;;;;;16.50;42.55;92065.44;5050494;28;20040;-88
2022/04/25 00:32:27;;;;;;;8.23;5.25;;;;;;;16.49;42.64;92064.72;5049434;28;20340;-88
2022/04/25 00:34:52;;;;;;;8.23;6.22;;;;;;;16.48;42.82;92068.69;5052999;28;20120;-89
2022/04/25 00:37:17;;;;;;;8.90;6.43;;;;;;;16.48;42.64;92063.25;5052010;28;20037;-89
2022/04/25 00:39:43;;;;;;;9.43;6.22;;;;;;;16.48;42.91;92065.97;5050156;28;20041;-89
2022/04/25 00:42:08;;;;;;;8.07;6.00;;;;;;;16.48;42.62;92068.69;5033841;28;20040;-89
2022/04/25 00:44:34;;;;;;;6.40;5.10;;;;;;;16.47;43.12;92067.22;5053520;28;20047;-89
2022/04/25 00:47:00;;;;;;;7.93;5.78;;;;;;;16.46;42.54;92069.22;5053232;28;20047;-89
2022/04/25 00:49:25;;;;;;;7.40;5.63;;;;;;;16.47;42.78;92067.22;5068808;28;20032;-89
2022/04/25 00:51:53;;;;;;;8.43;5.90;;;;;;;16.46;42.75;92065.75;5037052;28;20024;-89
2022/04/25 00:54:22;;;;;;;7.50;5.82;;;;;;;16.48;42.68;92062.50;5034989;28;20637;-89
2022/04/25 00:56:50;;;;;;;7.47;6.10;;;;;;;16.48;43.02;92062.50;5053319;28;20128;-89
2022/04/25 00:59:17;;;;;;;8.07;5.93;;;;;;;16.46;42.73;92061.03;5052310;28;20036;-88
2022/04/25 01:01:43;;;;;;;6.63;4.82;;;;;;;16.47;42.71;92059.06;5032880;28;20061;-89
2022/04/25 01:04:08;;;;;;;7.20;5.30;;;;;;;16.46;43.07;92060.31;5039356;28;20526;-88
2022/04/25 01:06:34;;;;;;;7.47;5.90;;;;;;;16.46;42.65;92058.31;5050152;28;20102;-88
2022/04/25 01:08:59;;;;;;;7.82;5.63;;;;;;;16.46;42.97;92060.31;5049740;28;20044;-88
2022/04/25 01:11:24;;;;;;;7.75;5.60;;;;;;;16.46;42.93;92063.03;5032432;28;20025;-88
2022/04/25 01:13:50;;;;;;;6.85;5.10;;;;;;;16.45;42.91;92061.59;5035659;28;20086;-88
2022/04/25 01:16:15;;;;;;;8.23;6.05;;;;;;;16.45;42.58;92058.88;5052228;28;20040;-89
2022/04/25 01:18:41;;;;;;;7.07;5.00;;;;;;;16.44;43.05;92055.41;5035988;28;20051;-88
2022/04/25 01:21:08;;;;;;;7.03;5.07;;;;;;;16.43;42.73;92061.41;5052231;28;20033;-88
2022/04/25 01:29:01;;;;;;;7.43;5.28;;;;;;;16.45;43.00;92054.13;5069270;28;20036;-89
2022/04/25 01:31:27;;;;;;;8.00;5.53;;;;;;;16.43;43.14;92048.50;5068820;28;20036;-89
2022/04/25 01:33:53;;;;;;;7.55;5.13;;;;;;;16.43;43.04;92059.41;5052337;28;20040;-89
2022/04/25 01:36:22;;;;;;;7.32;5.55;;;;;;;16.43;42.92;92056.69;5051483;28;20068;-88
2022/04/25 01:38:51;;;;;;;8.52;5.50;;;;;;;16.42;42.83;92054.47;5068765;28;20044;-88
2022/04/25 01:41:17;;;;;;;6.30;5.13;;;;;;;16.45;42.65;92053.41;5032074;28;20478;-89
2022/04/25 01:43:42;;;;;;;8.50;5.97;;;;;;;16.43;43.01;92053.22;5015761;28;20044;-88
2022/04/25 01:46:08;;;;;;;7.53;5.50;;;;;;;16.44;42.65;92046.50;5031769;28;20242;-88
2022/04/25 01:48:33;;;;;;;8.00;5.88;;;;;;;16.42;42.61;92054.47;5032298;28;20088;-89
2022/04/25 01:50:59;;;;;;;7.85;5.80;;;;;;;16.44;43.13;92051.94;5049038;28;20486;-88
2022/04/25 01:53:24;;;;;;;7.25;5.65;;;;;;;16.42;42.71;92066.13;5047961;28;20033;-88
2022/04/25 01:55:50;;;;;;;6.93;5.00;;;;;;;16.41;43.02;92059.19;5032376;28;20088;-88
2022/04/25 01:58:15;;;;;;;6.95;5.07;;;;;;;16.42;42.73;92059.94;5031448;28;20538;-88
2022/04/25 02:00:41;;;;;;;7.03;5.22;;;;;;;16.41;43.00;92058.47;5035946;28;20029;-88
2022/04/25 02:03:07;;;;;;;7.00;5.68;;;;;;;16.43;43.17;92069.56;5068763;28;20029;-88
2022/04/25 02:05:32;;;;;;;6.70;5.35;;;;;;;16.42;42.80;92052.47;5067950;28;20061;-88
2022/04/25 02:07:59;;;;;;;6.93;5.40;;;;;;;16.42;42.81;92059.94;5051991;28;20032;-88
2022/04/25 02:10:24;;;;;;;8.73;6.03;;;;;;;16.41;42.87;92070.09;5034056;28;20438;-88
2022/04/25 02:12:49;;;;;;;6.40;5.28;;;;;;;16.42;42.91;92060.66;5063008;28;20037;-88
2022/04/25 02:15:15;;;;;;;8.13;5.55;;;;;;;16.42;42.89;92066.13;5030381;28;20480;-89
2022/04/25 02:17:44;;;;;;;7.53;5.35;;;;;;;16.42;42.99;92070.84;5031017;28;20109;-89
2022/04/25 02:20:11;;;;;;;8.30;5.80;;;;;;;16.42;42.98;92070.84;5042943;28;20045;-88
2022/04/25 02:22:36;;;;;;;8.43;6.18;;;;;;;16.42;42.97;92066.13;5034895;28;20036;-88
2022/04/25 02:25:02;;;;;;;7.95;5.97;;;;;;;16.41;42.81;92067.38;5050896;28;20395;-89
2022/04/25 02:27:28;;;;;;;8.38;5.82;;;;;;;16.42;42.98;92077.03;5051442;28;20096;-88
2022/04/25 02:29:58;;;;;;;6.93;4.90;;;;;;;16.40;42.97;92070.63;5051238;28;20090;-88
2022/04/25 02:32:24;;;;;;;7.33;5.63;;;;;;;16.41;42.83;92077.56;5051746;28;20035;-88
2022/04/25 02:34:50;;;;;;;6.47;4.90;;;;;;;16.40;43.06;92073.34;5067951;28;20032;-89
2022/04/25 02:37:16;;;;;;;8.77;6.22;;;;;;;16.39;42.94;92083.53;5043148;28;20044;-89
2022/04/25 02:39:41;;;;;;;7.15;5.40;;;;;;;16.40;43.03;92073.34;5038024;28;20044;-88
2022/04/25 02:42:07;;;;;;;7.07;5.18;;;;;;;16.40;43.25;92073.34;5050819;28;20045;-88
2022/04/25 02:44:32;;;;;;;6.75;5.15;;;;;;;16.41;43.14;92063.91;5035048;28;20048;-88
2022/04/25 02:46:58;;;;;;;6.88;5.18;;;;;;;16.41;43.18;92075.56;5051256;28;20094;-88
2022/04/25 02:49:23;;;;;;;7.47;5.47;;;;;;;16.41;42.89;92074.81;5051118;28;20040;-88
2022/04/25 02:51:48;;;;;;;7.50;5.45;;;;;;;16.39;43.14;92086.25;5067913;28;20036;-88
2022/04/25 02:54:14;;;;;;;6.95;5.15;;;;;;;16.39;42.79;92080.81;5050161;28;20044;-89
2022/04/25 02:56:39;;;;;;;7.32;5.45;;;;;;;16.38;43.01;92078.59;5033904;28;20102;-88
2022/04/25 02:59:06;;;;;;;7.22;5.03;;;;;;;16.38;43.14;92087.53;5033225;28;20086;-88
2022/04/25 03:01:32;;;;;;;7.80;5.45;;;;;;;16.39;42.96;92091.72;5042724;28;20480;-88
2022/04/25 03:03:57;;;;;;;6.47;5.03;;;;;;;16.38;43.27;92087.53;5035666;28;20059;-88
2022/04/25 03:06:23;;;;;;;6.90;5.07;;;;;;;16.38;42.91;92087.53;5050429;28;20043;-88
2022/04/25 03:08:48;;;;;;;7.45;5.32;;;;;;;16.39;43.40;92086.25;5051138;28;20033;-88
2022/04/25 03:11:15;;;;;;;7.35;5.05;;;;;;;16.38;43.04;92095.72;5066653;28;20514;-88
2022/04/25 03:13:40;;;;;;;6.75;5.07;;;;;;;16.38;42.74;92092.97;5067013;28;20409;-88
2022/04/25 03:16:06;;;;;;;7.80;5.38;;;;;;;16.39;43.12;92097.19;5033160;28;20037;-89
2022/04/25 03:18:31;;;;;;;7.05;5.05;;;;;;;16.38;43.08;92092.97;5050345;28;20049;-88
2022/04/25 03:20:57;;;;;;;6.43;5.15;;;;;;;16.41;42.82;92107.56;5036687;28;20520;-88
2022/04/25 03:23:22;;;;;;;7.40;4.97;;;;;;;16.38;43.21;92098.44;5049974;28;20047;-88
2022/04/25 03:25:48;;;;;;;6.63;4.85;;;;;;;16.39;42.99;92101.91;5052276;28;20040;-88
2022/04/25 03:28:14;;;;;;;6.78;5.20;;;;;;;16.39;43.02;92108.09;5013662;28;20528;-88
2022/04/25 03:30:39;;;;;;;7.57;5.80;;;;;;;16.39;42.83;92107.34;5008782;28;20033;-88
2022/04/25 03:33:05;;;;;;;7.30;5.25;;;;;;;16.40;43.09;92109.53;5010592;28;20372;-88
2022/04/25 03:35:30;;;;;;;6.53;4.63;;;;;;;16.37;43.44;92112.59;5010023;28;20092;-88
2022/04/25 03:37:57;;;;;;;6.60;5.03;;;;;;;16.37;43.15;92110.59;4994386;28;20085;-88
2022/04/25 03:40:22;;;;;;;9.20;6.13;;;;;;;16.39;43.56;92112.81;5034251;28;20037;-88
2022/04/25 03:42:47;;;;;;;6.53;5.40;;;;;;;16.40;43.01;92106.81;5066939;28;20040;-89
2022/04/25 03:45:16;;;;;;;6.63;4.90;;;;;;;16.39;43.04;92112.81;5032947;28;20032;-88
2022/04/25 03:47:43;;;;;;;7.20;5.00;;;;;;;16.37;43.02;92101.69;5034172;28;20044;-88
2022/04/25 03:50:09;;;;;;;7.85;5.00;;;;;;;16.39;43.19;92110.81;5046822;28;20079;-88
2022/04/25 03:52:34;;;;;;;6.72;4.93;;;;;;;16.39;42.95;92116.25;5030744;28;20131;-88
2022/04/25 03:57:47;;;;;;;6.32;4.72;;;;;;;16.39;43.04;92123.72;5027158;28;20048;-88
2022/04/25 04:00:14;;;;;;;5.78;4.15;;;;;;;16.39;43.13;92123.72;4994331;28;20080;-89
2022/04/25 04:02:39;;;;;;;8.63;5.25;;;;;;;16.39;43.00;92129.91;5037902;28;20032;-89
2022/04/25 04:05:05;;;;;;;8.38;5.53;;;;;;;16.42;43.06;92130.84;5037724;28;20056;-88
2022/04/25 04:07:31;;;;;;;8.52;5.70;;;;;;;16.39;43.13;92132.63;5013127;28;20033;-89
2022/04/25 04:09:56;;;;;;;9.38;5.00;;;;;;;16.40;43.32;92127.91;5016753;28;20572;-89
2022/04/25 04:12:23;;;;;;;8.98;5.47;;;;;;;16.40;43.20;92131.38;5017327;28;20041;-88
2022/04/25 04:14:49;;;;;;;11.85;6.80;;;;;;;16.42;43.28;92137.03;5017492;28;20040;-88
2022/04/25 04:17:17;;;;;;;9.57;6.60;;;;;;;16.38;43.22;92136.63;5033783;28;20041;-88
2022/04/25 04:19:43;;;;;;;18.77;8.07;;;;;;;16.40;43.13;92149.72;5041924;28;20045;-87
2022/04/25 04:22:08;;;;;;;14.27;8.77;;;;;;;16.41;43.34;92140.28;5052865;28;20087;-88
2022/04/25 04:24:36;;;;;;;12.10;8.43;;;;;;;16.41;43.08;92145.75;5037460;28;20063;-87
2022/04/25 04:27:03;;;;;;;14.60;9.63;;;;;;;16.43;42.97;92154.13;5045494;28;20563;-89
2022/04/25 04:29:29;;;;;;;18.88;13.13;;;;;;;16.39;43.07;92154.44;5056347;28;20173;-89
2022/04/25 04:31:58;;;;;;;42.80;31.40;;;;;;;16.44;43.42;92158.31;5064376;28;20045;-88
2022/04/25 04:34:24;;;;;;;24.83;12.43;;;;;;;16.42;42.97;92167.03;5047260;28;20105;-89
2022/04/25 04:36:50;;;;;;;31.85;18.02;;;;;;;16.42;43.33;92167.03;5053637;28;20474;-87
2022/04/25 04:39:18;;;;;;;68.45;36.55;;;;;;;16.51;43.60;92168.56;5057421;28;20105;-93
2022/04/25 04:41:43;;;;;;;40.60;19.67;;;;;;;16.55;43.88;92170.97;5040333;28;20392;-91
2022/04/25 04:44:09;;;;;;;48.97;23.85;;;;;;;16.54;43.91;92172.97;5033934;28;20047;-84
2022/04/25 04:46:36;;;;;;;80.68;40.25;;;;;;;16.58;43.18;92178.13;5049946;28;20041;-90
2022/04/25 04:49:02;;;;;;;45.75;22.83;;;;;;;16.59;42.90;92168.66;5050401;28;20055;-86
2022/04/25 04:51:27;;;;;;;49.60;25.08;;;;;;;16.54;42.62;92181.16;5037924;28;20423;-88
2022/04/25 04:53:53;;;;;;;49.33;19.40;;;;;;;16.54;43.55;92189.34;5067728;28;20589;-88
2022/04/25 04:56:18;;;;;;;34.75;15.23;;;;;;;16.40;44.88;92198.81;5058333;28;20351;-90
2022/04/25 04:58:45;;;;;;;37.55;18.40;;;;;;;16.34;45.18;92196.19;5039249;28;20044;-88
2022/04/25 05:01:10;;;;;;;98.20;47.17;;;;;;;16.29;45.42;92199.03;5044325;28;20057;-90
2022/04/25 05:03:36;;;;;;;124.78;52.20;;;;;;;16.31;45.29;92208.16;5053880;28;20047;-90
2022/04/25 05:06:02;;;;;;;139.18;55.60;;;;;;;16.24;45.89;92208.78;5051427;28;20040;-90
2022/04/25 05:08:27;;;;;;;111.00;44.83;;;;;;;16.21;45.86;92207.13;5029927;28;20067;-90
2022/04/25 05:10:54;;;;;;;92.35;44.25;;;;;;;16.18;45.97;92210.16;5039634;28;20774;-87
2022/04/25 05:13:20;;;;;;;99.57;39.90;;;;;;;16.16;46.36;92216.13;5053585;28;20086;-88
2022/04/25 05:15:46;;;;;;;81.50;36.58;;;;;;;16.11;46.50;92204.06;5047859;28;20120;-87
2022/04/25 05:18:12;;;;;;;80.10;37.50;;;;;;;16.14;46.07;92217.91;5047296;28;20075;-88
2022/04/25 05:20:37;;;;;;;89.18;41.85;;;;;;;16.16;46.21;92218.13;5051090;28;20053;-89
2022/04/25 05:23:03;;;;;;;80.22;40.17;;;;;;;16.17;46.40;92220.34;5048941;28;20032;-88
2022/04/25 05:25:29;;;;;;;98.32;43.60;;;;;;;16.23;46.19;92214.78;5051521;28;20040;-87
2022/04/25 05:27:55;;;;;;;99.05;50.40;;;;;;;16.24;45.86;92221.72;5051008;28;20037;-87
2022/04/25 05:30:23;;;;;;;116.50;57.95;;;;;;;16.24;45.30;92229.88;5045737;28;20036;-89
2022/04/25 05:32:55;;;;;;;126.00;61.58;;;;;;;16.25;45.36;92214.97;5052231;28;20120;-87
2022/04/25 05:35:27;;;;;;;113.13;58.25;;;;;;;16.27;45.27;92226.09;5035650;28;20028;-86
2022/04/25 05:37:52;;;;;;;117.60;57.30;;;;;;;16.26;45.74;92222.63;5034082;28;20048;-87
2022/04/25 05:40:19;;;;;;;132.88;65.53;;;;;;;16.27;45.03;92235.00;5034239;28;20064;-87
2022/04/25 05:42:45;;;;;;;124.18;67.18;;;;;;;16.28;44.83;92238.47;5049362;28;20028;-88
2022/04/25 05:45:13;;;;;;;120.07;61.60;;;;;;;16.26;44.97;92238.97;5036395;28;20041;-86
2022/04/25 05:47:39;;;;;;;122.57;62.47;;;;;;;16.26;45.29;92238.25;5050067;28;20072;-87
2022/04/25 05:52:52;;;;;;;116.53;67.78;;;;;;;16.29;44.81;92243.41;5067733;28;20043;-86
2022/04/25 05:55:17;;;;;;;120.82;66.55;;;;;;;16.29;44.77;92239.94;5057409;28;20119;-87
2022/04/25 05:57:43;;;;;;;123.07;69.72;;;;;;;16.28;44.84;92243.91;5050938;28;20047;-88
2022/04/25 06:00:09;;;;;;;136.30;74.18;;;;;;;16.34;45.01;92241.81;5035141;28;20037;-92
2022/04/25 06:02:39;;;;;;;139.75;71.55;;;;;;;16.33;44.58;92238.38;5039216;28;20059;-88
2022/04/25 06:05:05;;;;;;;127.85;73.22;;;;;;;16.33;44.77;92238.38;5056855;28;20036;-87
2022/04/25 06:07:32;;;;;;;138.43;72.15;;;;;;;16.34;44.57;92253.47;5037294;28;20049;-88
2022/04/25 06:09:58;;;;;;;131.27;72.00;;;;;;;16.38;44.78;92253.16;5035590;28;20032;-88
2022/04/25 06:12:23;;;;;;;140.57;76.60;;;;;;;16.39;44.73;92255.34;5062738;28;20029;-88
2022/04/25 06:14:49;;;;;;;134.60;75.55;;;;;;;16.42;44.55;92259.03;5040898;28;20051;-91
2022/04/25 06:17:15;;;;;;;128.55;72.82;;;;;;;16.43;44.42;92250.31;5049701;28;20037;-90
2022/04/25 06:19:43;;;;;;;143.15;75.20;;;;;;;16.46;44.32;92262.16;5048448;28;20045;-90
2022/04/25 06:22:09;;;;;;;153.32;88.47;;;;;;;16.49;44.74;92263.09;5038221;28;20048;-89
2022/04/25 06:24:35;;;;;;;132.10;74.80;;;;;;;16.51;44.31;92264.03;5053491;28;20041;-91
2022/04/25 06:27:02;;;;;;;125.10;72.63;;;;;;;16.45;44.52;92269.59;5035921;28;20041;-88
2022/04/25 06:29:30;;;;;;;120.85;73.32;;;;;;;16.45;44.65;92268.91;5033695;28;20158;-89
2022/04/25 06:31:55;;;;;;;126.72;70.88;;;;;;;16.47;44.22;92269.09;5052354;28;20070;-89
2022/04/25 06:34:21;;;;;;;127.30;70.65;;;;;;;16.44;44.16;92279.06;5050146;28;20033;-87
2022/04/25 06:36:48;;;;;;;128.63;74.25;;;;;;;16.44;44.27;92270.16;5046655;28;20078;-91
2022/04/25 06:39:13;;;;;;;124.32;72.72;;;;;;;16.48;44.25;92269.81;5022272;28;20041;-87
2022/04/25 06:41:38;;;;;;;116.82;70.32;;;;;;;16.44;44.60;92268.16;5018472;28;20388;-88
2022/04/25 06:44:06;;;;;;;157.32;76.80;;;;;;;16.44;44.50;92261.97;5034104;28;20037;-88
2022/04/25 06:46:31;;;;;;;201.40;86.35;;;;;;;16.45;44.67;92272.34;5051286;28;20087;-89
2022/04/25 06:51:42;;;;;;;231.98;91.95;;;;;;;16.42;44.26;92278.84;5057977;28;20500;-88
2022/04/25 06:54:10;;;;;;;206.90;86.25;;;;;;;16.47;44.51;92288.19;5069376;22;20024;-87
2022/04/25 06:56:36;;;;;;;195.55;91.32;;;;;;;16.43;44.26;92291.25;4994997;28;20053;-87
2022/04/25 06:59:02;;;;;;;295.52;118.97;;;;;;;16.41;44.61;92293.75;4975540;28;20043;-88
2022/04/25 07:01:29;;;;;;;284.13;122.35;;;;;;;16.37;45.19;92284.41;4974789;28;20572;-88
2022/04/25 07:03:54;;;;;;;233.55;108.65;;;;;;;16.43;44.52;92295.97;4980634;28;20084;-85
2022/04/25 07:06:20;;;;;;;205.55;88.20;;;;;;;16.39;45.00;92293.53;4979651;28;20029;-92
2022/04/25 07:08:45;;;;;;;202.23;96.55;;;;;;;16.41;45.15;92299.22;4980378;28;20563;-86
2022/04/25 07:11:11;;;;;;;207.40;92.95;;;;;;;16.42;45.11;92295.22;4997936;28;20496;-87
2022/04/25 07:13:36;;;;;;;231.50;100.40;;;;;;;16.42;44.89;92297.94;4992859;28;20414;-85
2022/04/25 07:16:02;;;;;;;221.25;109.53;;;;;;;16.44;44.78;92305.63;4978335;28;20045;-91
2022/04/25 07:18:29;;;;;;;265.95;115.05;;;;;;;16.47;44.77;92304.53;4982141;28;20096;-88
2022/04/25 07:20:55;;;;;;;220.40;104.43;;;;;;;16.46;44.73;92294.88;4978934;28;20121;-89
2022/04/25 07:28:49;;;;;;;227.10;82.10;;;;;;;16.39;45.71;92317.34;4983795;28;20064;-87
2022/04/25 07:31:15;;;;;;;202.93;80.22;;;;;;;16.35;45.43;92314.94;4974048;28;20184;-87
2022/04/25 07:33:43;;;;;;;207.63;83.97;;;;;;;16.39;45.61;92329.00;4958461;28;20509;-90
2022/04/25 07:36:10;;;;;;;197.85;77.47;;;;;;;16.38;45.32;92324.81;4976267;28;20084;-87
2022/04/25 07:38:36;;;;;;;191.32;80.50;;;;;;;16.39;45.50;92341.91;4991247;28;20673;-88
2022/04/25 07:41:02;;;;;;;193.82;79.28;;;;;;;16.43;45.45;92334.88;4992642;28;20092;-88
2022/04/25 07:43:29;;;;;;;217.45;106.30;;;;;;;16.45;45.43;92335.06;4957260;28;20041;-88
2022/04/25 07:45:55;;;;;;;178.60;86.82;;;;;;;16.41;45.10;92325.75;4960623;28;20034;-90
2022/04/25 07:48:20;;;;;;;188.18;93.40;;;;;;;16.43;44.98;92337.59;5008062;28;20038;-89
2022/04/25 07:50:46;;;;;;;215.80;105.15;;;;;;;16.47;44.84;92334.53;4974968;28;20045;-87
2022/04/25 07:53:12;;;;;;;215.77;106.70;;;;;;;16.44;44.86;92336.34;4990281;28;20042;-87
2022/04/25 07:55:38;;;;;;;207.75;101.28;;;;;;;16.50;44.69;92341.69;4973223;28;20687;-87
2022/04/25 07:58:03;;;;;;;195.48;100.78;;;;;;;16.46;45.11;92347.44;4959659;28;20096;-87
2022/04/25 08:00:29;;;;;;;207.20;108.45;;;;;;;16.51;44.70;92358.78;4955445;28;20100;-87
2022/04/25 08:02:54;;;;;;;231.77;110.85;;;;;;;16.49;44.58;92359.31;4973494;28;20053;-87
2022/04/25 08:05:20;;;;;;;210.63;106.80;;;;;;;16.51;44.80;92364.25;4954982;28;20038;-87
2022/04/25 08:07:45;;;;;;;218.73;110.25;;;;;;;16.52;44.73;92366.44;4958888;28;20064;-89
2022/04/25 08:10:10;;;;;;;200.55;102.97;;;;;;;16.49;44.65;92370.22;4986894;28;20386;-86
2022/04/25 08:18:04;;;;;;;213.43;108.25;;;;;;;16.53;44.60;92386.28;4993173;28;20042;-87
2022/04/25 08:20:34;;;;;;;217.80;106.72;;;;;;;16.52;44.61;92371.91;4991991;28;20030;-87
2022/04/25 08:23:03;;;;;;;208.97;105.67;;;;;;;16.57;44.83;92387.44;4987792;28;20045;-88
2022/04/25 08:25:30;;;;;;;218.82;106.60;;;;;;;16.56;44.65;92382.50;4957956;28;20092;-88
2022/04/25 08:27:57;;;;;;;212.15;102.80;;;;;;;16.57;45.01;92392.91;4972700;28;20133;-88
2022/04/25 08:30:23;;;;;;;265.38;109.05;;;;;;;16.57;44.65;92384.72;4976966;28;20065;-87
2022/04/25 08:32:48;;;;;;;214.98;103.57;;;;;;;16.60;44.49;92385.66;4973576;28;20053;-87
2022/04/25 08:35:14;;;;;;;215.05;101.68;;;;;;;16.59;45.18;92381.47;4974447;28;20026;-87
2022/04/25 08:37:40;;;;;;;206.55;100.45;;;;;;;16.64;44.86;92377.94;4982631;28;20108;-87
2022/04/25 08:40:06;;;;;;;206.15;100.50;;;;;;;16.62;45.00;92370.25;4973698;28;20042;-87
2022/04/25 08:42:32;;;;;;;202.48;95.97;;;;;;;16.62;44.49;92388.63;4956576;28;21292;-87
2022/04/25 08:44:57;;;;;;;176.38;90.97;;;;;;;16.63;44.70;92392.81;4968550;28;20042;-86
2022/04/25 08:47:26;;;;;;;176.55;91.15;;;;;;;16.66;44.68;92402.72;4972896;28;20405;-87
2022/04/25 08:49:51;;;;;;;183.68;93.15;;;;;;;16.67;44.78;92404.91;4955142;28;20062;-87
2022/04/25 08:52:17;;;;;;;197.18;104.72;;;;;;;16.64;44.54;92418.88;4966287;28;20037;-86
2022/04/25 08:54:43;;;;;;;198.55;102.60;;;;;;;16.68;44.65;92411.09;5001839;28;20543;-86
2022/04/25 08:57:08;;;;;;;199.52;101.15;;;;;;;16.65;44.62;92418.34;4989393;28;20042;-87
2022/04/25 08:59:33;;;;;;;195.95;99.80;;;;;;;16.70;44.89;92430.41;4990951;28;20042;-87
2022/04/25 09:01:59;;;;;;;213.00;101.75;;;;;;;16.68;44.87;92420.00;4989586;28;20042;-86
2022/04/25 09:04:24;;;;;;;175.48;95.78;;;;;;;16.68;44.53;92432.91;4987300;28;20048;-86
2022/04/25 09:06:51;;;;;;;180.60;97.70;;;;;;;16.67;44.72;92426.00;4986212;28;20093;-88
2022/04/25 09:09:17;;;;;;;182.93;95.55;;;;;;;16.68;44.61;92430.91;5007259;28;20058;-89
2022/04/25 09:14:27;;;;;;;155.60;85.53;;;;;;;16.68;44.48;92436.38;4964866;28;20053;-87
2022/04/25 09:16:53;;;;;;;180.00;87.80;;;;;;;16.67;44.78;92450.56;4936472;28;20047;-88
2022/04/25 09:19:18;;;;;;;170.20;88.93;;;;;;;16.68;44.68;92457.47;4952200;28;20038;-90
2022/04/25 09:21:44;;;;;;;178.10;87.00;;;;;;;16.69;44.63;92456.22;4953707;28;20162;-90
2022/04/25 09:24:28;;;;;;;161.57;84.15;;;;;;;16.69;44.59;92461.69;4943441;28;20642;-87
2022/04/25 09:27:19;;;;;;;170.30;83.90;;;;;;;16.72;44.72;92466.09;4938009;28;20038;-89
2022/04/25 09:29:46;;;;;;;;;;;;;;;16.71;44.72;92464.63;4920803;29;20589;-87
2022/04/25 09:32:13;;;;;;;166.63;83.22;;;;;;;16.72;44.44;92468.81;4950612;28;19926;-87
2022/04/25 09:37:44;;;;;;;198.23;104.80;;;;;;;16.73;44.44;92475.75;4970005;28;20057;-90
2022/04/25 09:40:10;;;;;;;206.82;115.97;;;;;;;16.70;44.48;92469.34;4934989;29;20078;-87
2022/04/25 09:42:36;;;;;;;205.10;113.00;;;;;;;16.75;44.72;92479.44;4945640;28;20046;-88
2022/04/25 09:45:02;;;;;;;201.98;108.07;;;;;;;16.74;44.71;92482.69;4957387;28;20046;-88
2022/04/25 09:47:29;;;;;;;211.48;109.90;;;;;;;16.74;44.31;92483.41;4966629;28;20248;-91
2022/04/25 09:50:04;;;;;;;233.25;125.40;;;;;;;16.76;44.73;92488.34;4958744;28;20529;-88
2022/04/25 09:52:30;;;;;;;259.00;142.88;;;;;;;16.73;44.37;92492.13;4988472;28;20053;-87
2022/04/25 09:54:58;;;;;;;200.05;105.28;;;;;;;16.64;44.25;92498.00;4970337;28;20039;-87
2022/04/25 09:57:30;;;;;;;176.02;86.85;;;;;;;16.63;44.58;92491.03;4961466;28;20050;-88
2022/04/25 09:59:56;;;;;;;165.07;86.35;;;;;;;16.65;44.74;92492.03;4990048;28;20125;-89
2022/04/25 10:02:22;;;;;;;196.57;90.68;;;;;;;16.64;44.67;92495.28;4967604;28;20070;-89
2022/04/25 10:04:47;;;;;;;226.43;96.68;;;;;;;16.64;44.38;92512.38;4963053;28;20695;-87
2022/04/25 10:07:13;;;;;;;224.35;99.50;;;;;;;16.67;44.60;92507.88;4957387;28;20062;-86
2022/04/25 10:09:38;;;;;;;217.52;100.95;;;;;;;16.68;44.66;92509.31;4972112;28;20405;-87
2022/04/25 10:12:04;;;;;;;216.35;108.07;;;;;;;16.71;44.82;92506.28;4971924;28;20039;-87
2022/04/25 10:14:30;;;;;;;199.05;104.28;;;;;;;16.72;44.35;92504.28;4971112;28;20056;-87
2022/04/25 10:16:56;;;;;;;202.50;98.68;;;;;;;16.70;44.45;92509.53;4967716;28;21303;-86
2022/04/25 10:19:23;;;;;;;187.38;97.70;;;;;;;16.73;44.37;92500.31;4988626;28;20045;-87
2022/04/25 10:21:48;;;;;;;195.80;106.90;;;;;;;16.74;44.10;92510.72;4972950;28;20650;-86
2022/04/25 10:24:15;;;;;;;203.75;111.45;;;;;;;16.73;44.71;92511.22;4966101;28;20065;-85
2022/04/25 10:26:41;;;;;;;190.40;112.93;;;;;;;16.74;44.18;92513.44;4960095;28;20054;-85
2022/04/25 10:29:11;;;;;;;224.95;125.53;;;;;;;16.76;44.68;92519.13;4956376;28;20043;-85
2022/04/25 10:31:44;;;;;;;202.18;114.30;;;;;;;16.76;44.32;92518.38;4972512;28;20112;-85
2022/04/25 10:34:10;;;;;;;203.27;113.25;;;;;;;16.75;44.41;92519.63;4970108;28;20499;-85
2022/04/25 10:36:38;;;;;;;187.25;103.20;;;;;;;16.75;44.55;92520.38;4956025;28;20616;-85
2022/04/25 10:39:20;;;;;;;153.73;83.72;;;;;;;16.71;44.42;92527.38;4987930;28;20105;-86
2022/04/25 10:44:44;;;;;;;134.27;76.93;;;;;;;16.73;44.36;92528.34;4969625;28;20049;-85
2022/04/25 10:47:18;;;;;;;131.93;75.70;;;;;;;16.75;44.66;92533.28;4970257;28;20093;-85
2022/04/25 10:49:53;;;;;;;135.73;76.28;;;;;;;16.76;44.39;92527.31;4975238;28;20046;-85
2022/04/25 10:52:34;;;;;;;114.00;71.38;;;;;;;16.78;44.48;92526.78;4984021;28;20070;-86
2022/04/25 10:55:23;;;;;;;108.22;66.28;;;;;;;16.77;44.59;92526.03;4989477;28;20072;-87
2022/04/25 10:58:11;;;;;;;119.28;69.95;;;;;;;16.78;44.28;92537.69;4992255;28;20124;-87
2022/04/25 11:00:36;;;;;;;119.35;70.40;;;;;;;16.78;44.60;92543.91;5011611;28;20042;-89
2022/04/25 11:03:04;;;;;;;126.57;74.03;;;;;;;16.84;44.29;92554.00;4992282;28;20056;-86
2022/04/25 11:05:29;;;;;;;127.82;73.15;;;;;;;16.84;44.56;92543.06;5009103;28;20034;-88
2022/04/25 11:08:20;;;;;;;159.43;85.45;;;;;;;16.84;44.47;92549.28;4986423;28;20544;-86
2022/04/25 11:10:47;;;;;;;192.15;94.60;;;;;;;16.86;44.23;92554.22;5009886;28;20030;-90
2022/04/25 11:13:12;;;;;;;192.07;97.63;;;;;;;16.86;44.40;92552.22;4992942;28;20041;-87
2022/04/25 11:15:48;;;;;;;193.30;91.43;;;;;;;16.88;44.67;92557.16;4977203;28;20044;-87
2022/04/25 11:18:37;;;;;;;246.55;99.18;;;;;;;16.87;44.37;92559.16;4973750;28;20551;-87
2022/04/25 11:21:07;;;;;;;178.60;88.70;;;;;;;16.88;44.35;92568.06;4986449;28;20133;-89
2022/04/25 11:23:46;;;;;;;191.68;91.18;;;;;;;16.87;44.29;92578.25;4972348;28;20062;-86
2022/04/25 11:26:36;;;;;;;171.52;86.88;;;;;;;16.90;44.48;92582.66;4990805;28;20122;-88
2022/04/25 11:29:08;;;;;;;162.40;84.05;;;;;;;16.89;44.27;92581.19;4992489;28;20034;-88
2022/04/25 11:31:34;;;;;;;147.50;69.38;;;;;;;16.90;44.12;92588.13;4975305;28;20056;-87
2022/04/25 11:34:01;;;;;;;99.72;50.47;;;;;;;16.83;43.19;92591.47;4975264;28;20045;-86
2022/04/25 11:36:26;;;;;;;93.78;38.08;;;;;;;16.83;42.71;92596.19;4954960;28;20042;-90
2022/04/25 11:41:36;;;;;;;92.63;34.67;;;;;;;16.73;42.23;92602.03;4976637;28;20045;-87
2022/04/25 11:44:02;;;;;;;96.03;39.97;;;;;;;16.65;41.99;92600.44;4991389;28;20034;-87
2022/04/25 11:46:31;;;;;;;65.45;34.03;;;;;;;16.66;41.59;92610.84;4990007;28;20052;-85
2022/04/25 11:48:56;;;;;;;77.43;32.78;;;;;;;16.62;41.64;92613.09;4975604;28;20042;-86
2022/04/25 11:51:26;;;;;;;91.82;38.25;;;;;;;16.63;41.90;92611.09;4977080;28;20038;-86